sensor_id;sensor_type;location;lat;lon;timestamp;P1;durP1;ratioP1;P2;durP2;ratioP2
37164;SDS011;23057;48.554;14.454;2024-03-07T00:01:38;40.22;;;17.67;;
37164;SDS011;23057;48.554;14.454;2024-03-07T00:04:09;36.88;;;17.63;;
37164;SDS011;23057;48.554;14.454;2024-03-07T00:06:40;44.05;;;21.88;;
37164;SDS011;23057;48.554;14.454;2024-03-07T00:09:11;44.55;;;20.33;;
37164;SDS011;23057;48.554;14.454;2024-03-07T00:11:42;46.65;;;20.95;;
37164;SDS011;23057;48.554;14.454;2024-03-07T00:14:14;46.63;;;20.85;;
37164;SDS011;23057;48.554;14.454;2024-03-07T00:16:46;39.70;;;19.30;;
37164;SDS011;23057;48.554;14.454;2024-03-07T00:19:16;40.72;;;19.23;;
37164;SDS011;23057;48.554;14.454;2024-03-07T00:21:47;39.60;;;18.88;;
37164;SDS011;23057;48.554;14.454;2024-03-07T00:24:18;46.03;;;21.65;;
37164;SDS011;23057;48.554;14.454;2024-03-07T00:26:51;45.83;;;19.63;;
37164;SDS011;23057;48.554;14.454;2024-03-07T00:29:21;44.70;;;21.42;;
37164;SDS011;23057;48.554;14.454;2024-03-07T00:31:53;42.80;;;21.50;;
37164;SDS011;23057;48.554;14.454;2024-03-07T00:34:24;44.13;;;19.80;;
37164;SDS011;23057;48.554;14.454;2024-03-07T00:36:55;46.30;;;22.27;;
37164;SDS011;23057;48.554;14.454;2024-03-07T00:39:28;48.15;;;23.27;;
37164;SDS011;23057;48.554;14.454;2024-03-07T00:41:58;49.42;;;22.70;;
37164;SDS011;23057;48.554;14.454;2024-03-07T00:44:29;47.95;;;21.65;;
37164;SDS011;23057;48.554;14.454;2024-03-07T00:47:00;40.83;;;19.58;;
37164;SDS011;23057;48.554;14.454;2024-03-07T00:49:32;39.50;;;19.77;;
37164;SDS011;23057;48.554;14.454;2024-03-07T00:52:03;48.03;;;22.55;;
37164;SDS011;23057;48.554;14.454;2024-03-07T00:54:34;44.53;;;23.20;;
37164;SDS011;23057;48.554;14.454;2024-03-07T00:57:05;47.35;;;20.95;;
37164;SDS011;23057;48.554;14.454;2024-03-07T00:59:37;50.00;;;21.23;;
37164;SDS011;23057;48.554;14.454;2024-03-07T01:02:08;46.30;;;20.08;;
37164;SDS011;23057;48.554;14.454;2024-03-07T01:04:39;40.67;;;20.70;;
37164;SDS011;23057;48.554;14.454;2024-03-07T01:07:10;42.05;;;21.17;;
37164;SDS011;23057;48.554;14.454;2024-03-07T01:09:41;46.45;;;19.70;;
37164;SDS011;23057;48.554;14.454;2024-03-07T01:12:11;45.47;;;21.17;;
37164;SDS011;23057;48.554;14.454;2024-03-07T01:14:42;56.85;;;23.63;;
37164;SDS011;23057;48.554;14.454;2024-03-07T01:17:13;48.17;;;22.55;;
37164;SDS011;23057;48.554;14.454;2024-03-07T01:19:44;50.58;;;25.60;;
37164;SDS011;23057;48.554;14.454;2024-03-07T01:22:15;56.33;;;26.58;;
37164;SDS011;23057;48.554;14.454;2024-03-07T01:24:46;52.58;;;24.55;;
37164;SDS011;23057;48.554;14.454;2024-03-07T01:27:17;50.90;;;26.15;;
37164;SDS011;23057;48.554;14.454;2024-03-07T01:29:48;51.97;;;24.73;;
37164;SDS011;23057;48.554;14.454;2024-03-07T01:32:19;58.13;;;24.35;;
37164;SDS011;23057;48.554;14.454;2024-03-07T01:34:51;50.78;;;23.30;;
37164;SDS011;23057;48.554;14.454;2024-03-07T01:37:22;51.90;;;23.17;;
37164;SDS011;23057;48.554;14.454;2024-03-07T01:39:53;49.83;;;22.20;;
37164;SDS011;23057;48.554;14.454;2024-03-07T01:42:23;46.67;;;20.70;;
37164;SDS011;23057;48.554;14.454;2024-03-07T01:44:55;46.17;;;21.45;;
37164;SDS011;23057;48.554;14.454;2024-03-07T01:47:26;48.75;;;23.88;;
37164;SDS011;23057;48.554;14.454;2024-03-07T01:49:56;49.10;;;24.42;;
37164;SDS011;23057;48.554;14.454;2024-03-07T01:52:29;53.50;;;25.17;;
37164;SDS011;23057;48.554;14.454;2024-03-07T01:55:00;49.90;;;23.48;;
37164;SDS011;23057;48.554;14.454;2024-03-07T01:57:33;51.22;;;22.92;;
37164;SDS011;23057;48.554;14.454;2024-03-07T02:00:05;49.33;;;24.85;;
37164;SDS011;23057;48.554;14.454;2024-03-07T02:02:38;49.97;;;23.30;;
37164;SDS011;23057;48.554;14.454;2024-03-07T02:05:10;53.63;;;25.67;;
37164;SDS011;23057;48.554;14.454;2024-03-07T02:07:42;49.13;;;24.92;;
37164;SDS011;23057;48.554;14.454;2024-03-07T02:10:14;57.13;;;26.67;;
37164;SDS011;23057;48.554;14.454;2024-03-07T02:12:46;45.10;;;22.58;;
37164;SDS011;23057;48.554;14.454;2024-03-07T02:15:17;53.63;;;21.80;;
37164;SDS011;23057;48.554;14.454;2024-03-07T02:17:48;50.03;;;22.65;;
37164;SDS011;23057;48.554;14.454;2024-03-07T02:20:19;53.20;;;23.95;;
37164;SDS011;23057;48.554;14.454;2024-03-07T02:22:50;46.53;;;23.30;;
37164;SDS011;23057;48.554;14.454;2024-03-07T02:25:21;50.22;;;22.63;;
37164;SDS011;23057;48.554;14.454;2024-03-07T02:27:52;46.20;;;22.60;;
37164;SDS011;23057;48.554;14.454;2024-03-07T02:30:23;44.97;;;21.92;;
37164;SDS011;23057;48.554;14.454;2024-03-07T02:32:54;42.92;;;20.73;;
37164;SDS011;23057;48.554;14.454;2024-03-07T02:35:26;42.50;;;20.17;;
37164;SDS011;23057;48.554;14.454;2024-03-07T02:37:58;51.97;;;24.10;;
37164;SDS011;23057;48.554;14.454;2024-03-07T02:40:28;41.15;;;19.95;;
37164;SDS011;23057;48.554;14.454;2024-03-07T02:43:00;43.13;;;20.35;;
37164;SDS011;23057;48.554;14.454;2024-03-07T02:45:34;44.95;;;22.17;;
37164;SDS011;23057;48.554;14.454;2024-03-07T02:48:05;42.72;;;19.60;;
37164;SDS011;23057;48.554;14.454;2024-03-07T02:50:39;40.03;;;19.40;;
37164;SDS011;23057;48.554;14.454;2024-03-07T02:53:10;41.47;;;20.52;;
37164;SDS011;23057;48.554;14.454;2024-03-07T02:55:41;46.90;;;22.27;;
37164;SDS011;23057;48.554;14.454;2024-03-07T02:58:11;47.13;;;20.88;;
37164;SDS011;23057;48.554;14.454;2024-03-07T03:00:42;44.63;;;21.25;;
37164;SDS011;23057;48.554;14.454;2024-03-07T03:03:13;43.75;;;22.38;;
37164;SDS011;23057;48.554;14.454;2024-03-07T03:05:44;41.33;;;20.10;;
37164;SDS011;23057;48.554;14.454;2024-03-07T03:08:15;39.38;;;20.50;;
37164;SDS011;23057;48.554;14.454;2024-03-07T03:10:46;41.85;;;19.95;;
37164;SDS011;23057;48.554;14.454;2024-03-07T03:13:16;37.08;;;19.70;;
37164;SDS011;23057;48.554;14.454;2024-03-07T03:15:47;42.72;;;22.13;;
37164;SDS011;23057;48.554;14.454;2024-03-07T03:18:18;42.78;;;19.67;;
37164;SDS011;23057;48.554;14.454;2024-03-07T03:20:50;37.88;;;20.00;;
37164;SDS011;23057;48.554;14.454;2024-03-07T03:23:22;35.45;;;19.13;;
37164;SDS011;23057;48.554;14.454;2024-03-07T03:25:53;36.90;;;18.30;;
37164;SDS011;23057;48.554;14.454;2024-03-07T03:28:25;32.78;;;16.55;;
37164;SDS011;23057;48.554;14.454;2024-03-07T03:30:56;34.20;;;16.75;;
37164;SDS011;23057;48.554;14.454;2024-03-07T03:33:27;35.90;;;18.60;;
37164;SDS011;23057;48.554;14.454;2024-03-07T03:35:58;40.47;;;18.35;;
37164;SDS011;23057;48.554;14.454;2024-03-07T03:38:29;35.05;;;18.00;;
37164;SDS011;23057;48.554;14.454;2024-03-07T03:40:59;41.60;;;18.92;;
37164;SDS011;23057;48.554;14.454;2024-03-07T03:43:30;40.80;;;20.27;;
37164;SDS011;23057;48.554;14.454;2024-03-07T03:46:02;39.90;;;19.75;;
37164;SDS011;23057;48.554;14.454;2024-03-07T03:48:33;40.53;;;18.73;;
37164;SDS011;23057;48.554;14.454;2024-03-07T03:51:03;38.65;;;18.35;;
37164;SDS011;23057;48.554;14.454;2024-03-07T03:53:40;38.15;;;17.92;;
37164;SDS011;23057;48.554;14.454;2024-03-07T03:56:10;39.55;;;18.95;;
37164;SDS011;23057;48.554;14.454;2024-03-07T03:58:42;52.15;;;22.08;;
37164;SDS011;23057;48.554;14.454;2024-03-07T04:01:13;41.47;;;20.15;;
37164;SDS011;23057;48.554;14.454;2024-03-07T04:03:44;41.35;;;19.40;;
37164;SDS011;23057;48.554;14.454;2024-03-07T04:06:18;39.05;;;18.25;;
37164;SDS011;23057;48.554;14.454;2024-03-07T04:08:49;41.67;;;17.10;;
37164;SDS011;23057;48.554;14.454;2024-03-07T04:11:20;38.10;;;16.75;;
37164;SDS011;23057;48.554;14.454;2024-03-07T04:13:51;37.22;;;18.25;;
37164;SDS011;23057;48.554;14.454;2024-03-07T04:16:22;40.40;;;18.77;;
37164;SDS011;23057;48.554;14.454;2024-03-07T04:18:53;41.03;;;18.13;;
37164;SDS011;23057;48.554;14.454;2024-03-07T04:21:23;38.28;;;17.08;;
37164;SDS011;23057;48.554;14.454;2024-03-07T04:23:55;41.85;;;19.58;;
37164;SDS011;23057;48.554;14.454;2024-03-07T04:26:26;31.80;;;16.73;;
37164;SDS011;23057;48.554;14.454;2024-03-07T04:28:57;38.58;;;17.00;;
37164;SDS011;23057;48.554;14.454;2024-03-07T04:31:28;38.45;;;16.67;;
37164;SDS011;23057;48.554;14.454;2024-03-07T04:33:58;35.00;;;17.33;;
37164;SDS011;23057;48.554;14.454;2024-03-07T04:36:29;35.42;;;15.65;;
37164;SDS011;23057;48.554;14.454;2024-03-07T04:39:02;31.05;;;14.98;;
37164;SDS011;23057;48.554;14.454;2024-03-07T04:41:34;27.98;;;14.07;;
37164;SDS011;23057;48.554;14.454;2024-03-07T04:44:06;30.00;;;14.45;;
37164;SDS011;23057;48.554;14.454;2024-03-07T04:46:36;31.38;;;15.00;;
37164;SDS011;23057;48.554;14.454;2024-03-07T04:49:12;21.73;;;11.80;;
37164;SDS011;23057;48.554;14.454;2024-03-07T04:51:43;30.95;;;13.57;;
37164;SDS011;23057;48.554;14.454;2024-03-07T04:54:14;24.77;;;12.05;;
37164;SDS011;23057;48.554;14.454;2024-03-07T04:56:45;27.23;;;13.77;;
37164;SDS011;23057;48.554;14.454;2024-03-07T04:59:18;24.08;;;11.52;;
37164;SDS011;23057;48.554;14.454;2024-03-07T05:01:51;21.67;;;11.73;;
37164;SDS011;23057;48.554;14.454;2024-03-07T05:04:22;22.05;;;11.75;;
37164;SDS011;23057;48.554;14.454;2024-03-07T05:06:53;25.55;;;13.82;;
37164;SDS011;23057;48.554;14.454;2024-03-07T05:09:24;24.17;;;12.77;;
37164;SDS011;23057;48.554;14.454;2024-03-07T05:11:55;26.95;;;13.35;;
37164;SDS011;23057;48.554;14.454;2024-03-07T05:14:27;27.38;;;14.57;;
37164;SDS011;23057;48.554;14.454;2024-03-07T05:16:58;22.48;;;12.60;;
37164;SDS011;23057;48.554;14.454;2024-03-07T05:19:35;26.33;;;14.27;;
37164;SDS011;23057;48.554;14.454;2024-03-07T05:22:06;29.17;;;14.27;;
37164;SDS011;23057;48.554;14.454;2024-03-07T05:24:38;23.08;;;13.43;;
37164;SDS011;23057;48.554;14.454;2024-03-07T05:27:09;29.70;;;14.05;;
37164;SDS011;23057;48.554;14.454;2024-03-07T05:29:42;26.55;;;14.35;;
37164;SDS011;23057;48.554;14.454;2024-03-07T05:32:20;36.85;;;15.18;;
37164;SDS011;23057;48.554;14.454;2024-03-07T05:34:56;23.23;;;12.93;;
37164;SDS011;23057;48.554;14.454;2024-03-07T05:37:28;26.73;;;13.60;;
37164;SDS011;23057;48.554;14.454;2024-03-07T05:39:59;25.35;;;13.95;;
37164;SDS011;23057;48.554;14.454;2024-03-07T05:42:31;27.23;;;14.27;;
37164;SDS011;23057;48.554;14.454;2024-03-07T05:45:02;24.55;;;15.10;;
37164;SDS011;23057;48.554;14.454;2024-03-07T05:47:37;29.48;;;15.05;;
37164;SDS011;23057;48.554;14.454;2024-03-07T05:50:08;25.35;;;13.77;;
37164;SDS011;23057;48.554;14.454;2024-03-07T05:52:40;25.58;;;13.52;;
37164;SDS011;23057;48.554;14.454;2024-03-07T05:55:11;33.05;;;15.38;;
37164;SDS011;23057;48.554;14.454;2024-03-07T05:57:42;31.58;;;16.90;;
37164;SDS011;23057;48.554;14.454;2024-03-07T06:00:14;31.30;;;14.93;;
37164;SDS011;23057;48.554;14.454;2024-03-07T06:02:46;30.95;;;15.00;;
37164;SDS011;23057;48.554;14.454;2024-03-07T06:05:16;32.58;;;15.15;;
37164;SDS011;23057;48.554;14.454;2024-03-07T06:07:48;39.70;;;16.10;;
37164;SDS011;23057;48.554;14.454;2024-03-07T06:10:19;31.55;;;15.70;;
37164;SDS011;23057;48.554;14.454;2024-03-07T06:12:54;31.98;;;16.60;;
37164;SDS011;23057;48.554;14.454;2024-03-07T06:15:24;45.75;;;18.45;;
37164;SDS011;23057;48.554;14.454;2024-03-07T06:17:55;40.45;;;18.05;;
37164;SDS011;23057;48.554;14.454;2024-03-07T06:20:26;39.08;;;16.98;;
37164;SDS011;23057;48.554;14.454;2024-03-07T06:22:57;33.65;;;17.38;;
37164;SDS011;23057;48.554;14.454;2024-03-07T06:25:29;37.88;;;18.33;;
37164;SDS011;23057;48.554;14.454;2024-03-07T06:28:06;41.08;;;17.55;;
37164;SDS011;23057;48.554;14.454;2024-03-07T06:30:41;38.40;;;15.10;;
37164;SDS011;23057;48.554;14.454;2024-03-07T06:33:16;38.15;;;16.08;;
37164;SDS011;23057;48.554;14.454;2024-03-07T06:35:47;38.85;;;18.35;;
37164;SDS011;23057;48.554;14.454;2024-03-07T06:38:18;45.28;;;16.63;;
37164;SDS011;23057;48.554;14.454;2024-03-07T06:40:49;42.88;;;17.05;;
37164;SDS011;23057;48.554;14.454;2024-03-07T06:43:20;40.80;;;16.60;;
37164;SDS011;23057;48.554;14.454;2024-03-07T06:45:51;38.78;;;16.25;;
37164;SDS011;23057;48.554;14.454;2024-03-07T06:48:25;51.78;;;18.23;;
37164;SDS011;23057;48.554;14.454;2024-03-07T06:50:58;45.83;;;18.63;;
37164;SDS011;23057;48.554;14.454;2024-03-07T06:53:31;42.45;;;17.02;;
37164;SDS011;23057;48.554;14.454;2024-03-07T06:56:05;44.15;;;19.20;;
37164;SDS011;23057;48.554;14.454;2024-03-07T06:58:39;44.65;;;19.77;;
37164;SDS011;23057;48.554;14.454;2024-03-07T07:01:12;50.90;;;18.70;;
37164;SDS011;23057;48.554;14.454;2024-03-07T07:03:45;37.42;;;18.15;;
37164;SDS011;23057;48.554;14.454;2024-03-07T07:06:17;45.45;;;17.75;;
37164;SDS011;23057;48.554;14.454;2024-03-07T07:08:49;38.47;;;17.02;;
37164;SDS011;23057;48.554;14.454;2024-03-07T07:11:19;45.97;;;19.42;;
37164;SDS011;23057;48.554;14.454;2024-03-07T07:13:50;40.65;;;18.05;;
37164;SDS011;23057;48.554;14.454;2024-03-07T07:16:21;49.00;;;20.17;;
37164;SDS011;23057;48.554;14.454;2024-03-07T07:18:52;42.22;;;18.75;;
37164;SDS011;23057;48.554;14.454;2024-03-07T07:21:23;43.08;;;18.88;;
37164;SDS011;23057;48.554;14.454;2024-03-07T07:23:54;43.60;;;17.13;;
37164;SDS011;23057;48.554;14.454;2024-03-07T07:26:25;47.03;;;20.08;;
37164;SDS011;23057;48.554;14.454;2024-03-07T07:28:55;34.13;;;16.30;;
37164;SDS011;23057;48.554;14.454;2024-03-07T07:31:27;42.08;;;18.08;;
37164;SDS011;23057;48.554;14.454;2024-03-07T07:33:57;33.97;;;15.95;;
37164;SDS011;23057;48.554;14.454;2024-03-07T07:36:28;36.55;;;16.55;;
37164;SDS011;23057;48.554;14.454;2024-03-07T07:38:59;37.17;;;18.08;;
37164;SDS011;23057;48.554;14.454;2024-03-07T07:41:30;46.25;;;17.67;;
37164;SDS011;23057;48.554;14.454;2024-03-07T07:44:01;38.17;;;15.73;;
37164;SDS011;23057;48.554;14.454;2024-03-07T07:46:32;40.65;;;17.55;;
37164;SDS011;23057;48.554;14.454;2024-03-07T07:49:04;40.67;;;17.75;;
37164;SDS011;23057;48.554;14.454;2024-03-07T07:51:34;39.17;;;17.38;;
37164;SDS011;23057;48.554;14.454;2024-03-07T07:54:05;37.40;;;16.88;;
37164;SDS011;23057;48.554;14.454;2024-03-07T07:56:36;38.30;;;19.25;;
37164;SDS011;23057;48.554;14.454;2024-03-07T07:59:07;36.88;;;16.55;;
37164;SDS011;23057;48.554;14.454;2024-03-07T08:01:39;39.28;;;16.48;;
37164;SDS011;23057;48.554;14.454;2024-03-07T08:04:10;48.03;;;19.10;;
37164;SDS011;23057;48.554;14.454;2024-03-07T08:06:41;43.13;;;19.67;;
37164;SDS011;23057;48.554;14.454;2024-03-07T08:09:13;40.50;;;18.45;;
37164;SDS011;23057;48.554;14.454;2024-03-07T08:11:46;42.17;;;18.95;;
37164;SDS011;23057;48.554;14.454;2024-03-07T08:14:20;38.17;;;17.73;;
37164;SDS011;23057;48.554;14.454;2024-03-07T08:16:52;49.58;;;19.35;;
37164;SDS011;23057;48.554;14.454;2024-03-07T08:19:22;38.88;;;18.10;;
37164;SDS011;23057;48.554;14.454;2024-03-07T08:21:54;36.28;;;17.73;;
37164;SDS011;23057;48.554;14.454;2024-03-07T08:24:25;39.47;;;18.45;;
37164;SDS011;23057;48.554;14.454;2024-03-07T08:26:55;40.40;;;19.20;;
37164;SDS011;23057;48.554;14.454;2024-03-07T08:29:26;44.80;;;19.77;;
37164;SDS011;23057;48.554;14.454;2024-03-07T08:31:57;35.60;;;16.85;;
37164;SDS011;23057;48.554;14.454;2024-03-07T08:34:28;43.50;;;17.45;;
37164;SDS011;23057;48.554;14.454;2024-03-07T08:36:59;45.42;;;19.38;;
37164;SDS011;23057;48.554;14.454;2024-03-07T08:39:30;37.58;;;18.00;;
37164;SDS011;23057;48.554;14.454;2024-03-07T08:42:00;42.13;;;18.60;;
37164;SDS011;23057;48.554;14.454;2024-03-07T08:44:31;42.17;;;18.65;;
37164;SDS011;23057;48.554;14.454;2024-03-07T08:47:02;41.47;;;18.13;;
37164;SDS011;23057;48.554;14.454;2024-03-07T08:49:34;39.20;;;15.88;;
37164;SDS011;23057;48.554;14.454;2024-03-07T08:52:04;41.75;;;18.45;;
37164;SDS011;23057;48.554;14.454;2024-03-07T08:54:36;51.10;;;20.30;;
37164;SDS011;23057;48.554;14.454;2024-03-07T08:57:07;38.95;;;18.38;;
37164;SDS011;23057;48.554;14.454;2024-03-07T08:59:38;42.95;;;18.77;;
37164;SDS011;23057;48.554;14.454;2024-03-07T09:02:09;47.40;;;19.70;;
37164;SDS011;23057;48.554;14.454;2024-03-07T09:04:44;40.20;;;16.20;;
37164;SDS011;23057;48.554;14.454;2024-03-07T09:07:15;37.60;;;17.05;;
37164;SDS011;23057;48.554;14.454;2024-03-07T09:09:47;38.75;;;15.98;;
37164;SDS011;23057;48.554;14.454;2024-03-07T09:12:18;43.95;;;19.60;;
37164;SDS011;23057;48.554;14.454;2024-03-07T09:14:50;36.00;;;17.33;;
37164;SDS011;23057;48.554;14.454;2024-03-07T09:17:22;35.95;;;17.58;;
37164;SDS011;23057;48.554;14.454;2024-03-07T09:19:54;34.03;;;16.35;;
37164;SDS011;23057;48.554;14.454;2024-03-07T09:22:25;36.25;;;15.57;;
37164;SDS011;23057;48.554;14.454;2024-03-07T09:24:56;30.13;;;15.05;;
37164;SDS011;23057;48.554;14.454;2024-03-07T09:27:27;34.30;;;16.10;;
37164;SDS011;23057;48.554;14.454;2024-03-07T09:29:58;35.55;;;16.95;;
37164;SDS011;23057;48.554;14.454;2024-03-07T09:32:29;34.80;;;17.38;;
37164;SDS011;23057;48.554;14.454;2024-03-07T09:35:03;32.95;;;15.35;;
37164;SDS011;23057;48.554;14.454;2024-03-07T09:37:38;33.83;;;16.13;;
37164;SDS011;23057;48.554;14.454;2024-03-07T09:40:13;36.05;;;14.85;;
37164;SDS011;23057;48.554;14.454;2024-03-07T09:42:47;31.58;;;15.30;;
37164;SDS011;23057;48.554;14.454;2024-03-07T09:45:22;39.83;;;15.50;;
37164;SDS011;23057;48.554;14.454;2024-03-07T09:48:00;33.80;;;15.10;;
37164;SDS011;23057;48.554;14.454;2024-03-07T09:50:32;35.28;;;16.42;;
37164;SDS011;23057;48.554;14.454;2024-03-07T09:53:04;31.75;;;15.38;;
37164;SDS011;23057;48.554;14.454;2024-03-07T09:55:35;31.88;;;15.40;;
37164;SDS011;23057;48.554;14.454;2024-03-07T09:58:06;33.30;;;15.65;;
37164;SDS011;23057;48.554;14.454;2024-03-07T10:00:40;32.20;;;17.63;;
37164;SDS011;23057;48.554;14.454;2024-03-07T10:03:12;29.85;;;15.52;;
37164;SDS011;23057;48.554;14.454;2024-03-07T10:05:45;34.63;;;17.50;;
37164;SDS011;23057;48.554;14.454;2024-03-07T10:08:16;30.23;;;15.27;;
37164;SDS011;23057;48.554;14.454;2024-03-07T10:10:47;28.80;;;15.75;;
37164;SDS011;23057;48.554;14.454;2024-03-07T10:13:19;30.58;;;15.23;;
37164;SDS011;23057;48.554;14.454;2024-03-07T10:15:52;39.08;;;17.00;;
37164;SDS011;23057;48.554;14.454;2024-03-07T10:18:26;28.77;;;15.88;;
37164;SDS011;23057;48.554;14.454;2024-03-07T10:20:57;37.30;;;19.00;;
37164;SDS011;23057;48.554;14.454;2024-03-07T10:23:30;33.40;;;17.02;;
37164;SDS011;23057;48.554;14.454;2024-03-07T10:26:04;34.30;;;16.80;;
37164;SDS011;23057;48.554;14.454;2024-03-07T10:28:35;36.63;;;17.17;;
37164;SDS011;23057;48.554;14.454;2024-03-07T10:31:08;32.58;;;16.40;;
37164;SDS011;23057;48.554;14.454;2024-03-07T10:33:41;30.92;;;14.90;;
37164;SDS011;23057;48.554;14.454;2024-03-07T10:36:13;33.97;;;18.73;;
37164;SDS011;23057;48.554;14.454;2024-03-07T10:38:45;37.53;;;17.67;;
37164;SDS011;23057;48.554;14.454;2024-03-07T10:41:16;31.27;;;15.23;;
37164;SDS011;23057;48.554;14.454;2024-03-07T10:43:48;29.67;;;15.07;;
37164;SDS011;23057;48.554;14.454;2024-03-07T10:46:30;27.75;;;16.27;;
37164;SDS011;23057;48.554;14.454;2024-03-07T10:49:04;33.03;;;16.13;;
37164;SDS011;23057;48.554;14.454;2024-03-07T10:51:46;36.35;;;16.67;;
37164;SDS011;23057;48.554;14.454;2024-03-07T10:57:56;29.85;;;15.60;;
37164;SDS011;23057;48.554;14.454;2024-03-07T11:00:44;27.55;;;13.93;;
37164;SDS011;23057;48.554;14.454;2024-03-07T11:03:17;28.58;;;15.35;;
37164;SDS011;23057;48.554;14.454;2024-03-07T11:05:50;32.30;;;14.55;;
37164;SDS011;23057;48.554;14.454;2024-03-07T11:08:22;30.27;;;15.50;;
37164;SDS011;23057;48.554;14.454;2024-03-07T11:10:56;30.52;;;15.43;;
37164;SDS011;23057;48.554;14.454;2024-03-07T11:13:27;26.90;;;13.70;;
37164;SDS011;23057;48.554;14.454;2024-03-07T11:16:01;33.83;;;14.18;;
37164;SDS011;23057;48.554;14.454;2024-03-07T11:18:36;32.38;;;14.30;;
37164;SDS011;23057;48.554;14.454;2024-03-07T11:21:07;31.60;;;15.15;;
37164;SDS011;23057;48.554;14.454;2024-03-07T11:24:22;26.35;;;14.02;;
37164;SDS011;23057;48.554;14.454;2024-03-07T11:27:03;23.08;;;11.63;;
37164;SDS011;23057;48.554;14.454;2024-03-07T11:29:40;31.75;;;13.27;;
37164;SDS011;23057;48.554;14.454;2024-03-07T11:32:28;20.38;;;11.15;;
37164;SDS011;23057;48.554;14.454;2024-03-07T11:34:59;24.58;;;11.88;;
37164;SDS011;23057;48.554;14.454;2024-03-07T11:37:44;27.05;;;12.68;;
37164;SDS011;23057;48.554;14.454;2024-03-07T11:42:56;23.70;;;12.30;;
37164;SDS011;23057;48.554;14.454;2024-03-07T11:45:30;24.48;;;11.88;;
37164;SDS011;23057;48.554;14.454;2024-03-07T11:48:15;25.23;;;11.60;;
37164;SDS011;23057;48.554;14.454;2024-03-07T11:50:49;22.60;;;12.68;;
37164;SDS011;23057;48.554;14.454;2024-03-07T11:53:21;28.40;;;13.90;;
37164;SDS011;23057;48.554;14.454;2024-03-07T11:55:51;23.02;;;12.30;;
37164;SDS011;23057;48.554;14.454;2024-03-07T11:58:24;26.38;;;12.50;;
37164;SDS011;23057;48.554;14.454;2024-03-07T12:00:55;24.75;;;13.18;;
37164;SDS011;23057;48.554;14.454;2024-03-07T12:03:28;22.13;;;11.80;;
37164;SDS011;23057;48.554;14.454;2024-03-07T12:06:01;23.75;;;11.43;;
37164;SDS011;23057;48.554;14.454;2024-03-07T12:08:33;25.60;;;12.50;;
37164;SDS011;23057;48.554;14.454;2024-03-07T12:11:03;30.80;;;13.00;;
37164;SDS011;23057;48.554;14.454;2024-03-07T12:13:35;23.10;;;11.32;;
37164;SDS011;23057;48.554;14.454;2024-03-07T12:16:06;23.70;;;13.13;;
37164;SDS011;23057;48.554;14.454;2024-03-07T12:18:38;33.17;;;13.27;;
37164;SDS011;23057;48.554;14.454;2024-03-07T12:21:09;24.15;;;12.45;;
37164;SDS011;23057;48.554;14.454;2024-03-07T12:23:42;24.75;;;12.50;;
37164;SDS011;23057;48.554;14.454;2024-03-07T12:26:13;25.45;;;11.40;;
37164;SDS011;23057;48.554;14.454;2024-03-07T12:28:50;20.93;;;11.83;;
37164;SDS011;23057;48.554;14.454;2024-03-07T12:31:23;22.73;;;12.48;;
37164;SDS011;23057;48.554;14.454;2024-03-07T12:33:54;26.55;;;12.27;;
37164;SDS011;23057;48.554;14.454;2024-03-07T12:36:25;25.70;;;11.10;;
37164;SDS011;23057;48.554;14.454;2024-03-07T12:39:04;26.13;;;12.27;;
37164;SDS011;23057;48.554;14.454;2024-03-07T12:41:56;23.55;;;12.75;;
37164;SDS011;23057;48.554;14.454;2024-03-07T12:44:26;26.48;;;12.55;;
37164;SDS011;23057;48.554;14.454;2024-03-07T12:46:57;25.45;;;11.82;;
37164;SDS011;23057;48.554;14.454;2024-03-07T12:49:29;20.08;;;11.80;;
37164;SDS011;23057;48.554;14.454;2024-03-07T12:52:00;27.92;;;12.27;;
37164;SDS011;23057;48.554;14.454;2024-03-07T12:54:31;28.67;;;13.20;;
37164;SDS011;23057;48.554;14.454;2024-03-07T12:57:02;28.73;;;13.65;;
37164;SDS011;23057;48.554;14.454;2024-03-07T12:59:36;24.50;;;12.65;;
37164;SDS011;23057;48.554;14.454;2024-03-07T13:02:11;22.83;;;12.68;;
37164;SDS011;23057;48.554;14.454;2024-03-07T13:04:42;26.77;;;12.68;;
37164;SDS011;23057;48.554;14.454;2024-03-07T13:07:15;22.83;;;12.70;;
37164;SDS011;23057;48.554;14.454;2024-03-07T13:09:46;24.80;;;12.20;;
37164;SDS011;23057;48.554;14.454;2024-03-07T13:12:18;24.33;;;11.02;;
37164;SDS011;23057;48.554;14.454;2024-03-07T13:14:49;25.40;;;11.85;;
37164;SDS011;23057;48.554;14.454;2024-03-07T13:17:20;18.50;;;10.15;;
37164;SDS011;23057;48.554;14.454;2024-03-07T13:19:51;20.65;;;11.23;;
37164;SDS011;23057;48.554;14.454;2024-03-07T13:22:29;21.20;;;11.07;;
37164;SDS011;23057;48.554;14.454;2024-03-07T13:25:01;21.55;;;10.65;;
37164;SDS011;23057;48.554;14.454;2024-03-07T13:27:37;19.98;;;9.80;;
37164;SDS011;23057;48.554;14.454;2024-03-07T13:30:11;21.23;;;10.70;;
37164;SDS011;23057;48.554;14.454;2024-03-07T13:32:55;17.45;;;9.55;;
37164;SDS011;23057;48.554;14.454;2024-03-07T13:35:29;16.40;;;9.75;;
37164;SDS011;23057;48.554;14.454;2024-03-07T13:38:00;21.63;;;10.23;;
37164;SDS011;23057;48.554;14.454;2024-03-07T13:40:31;16.52;;;9.55;;
37164;SDS011;23057;48.554;14.454;2024-03-07T13:43:05;18.77;;;10.10;;
37164;SDS011;23057;48.554;14.454;2024-03-07T13:45:37;25.40;;;9.48;;
37164;SDS011;23057;48.554;14.454;2024-03-07T13:48:13;20.25;;;9.32;;
37164;SDS011;23057;48.554;14.454;2024-03-07T13:50:47;17.73;;;8.80;;
37164;SDS011;23057;48.554;14.454;2024-03-07T13:53:19;19.73;;;9.75;;
37164;SDS011;23057;48.554;14.454;2024-03-07T14:01:23;17.20;;;9.95;;
37164;SDS011;23057;48.554;14.454;2024-03-07T14:14:45;17.98;;;8.45;;
37164;SDS011;23057;48.554;14.454;2024-03-07T14:21:50;16.33;;;8.75;;
37164;SDS011;23057;48.554;14.454;2024-03-07T14:25:07;14.43;;;7.65;;
37164;SDS011;23057;48.554;14.454;2024-03-07T14:32:04;14.18;;;7.40;;
37164;SDS011;23057;48.554;14.454;2024-03-07T14:34:38;15.88;;;7.95;;
37164;SDS011;23057;48.554;14.454;2024-03-07T14:37:39;17.52;;;8.98;;
37164;SDS011;23057;48.554;14.454;2024-03-07T14:40:24;14.57;;;7.70;;
37164;SDS011;23057;48.554;14.454;2024-03-07T14:42:56;13.90;;;7.55;;
37164;SDS011;23057;48.554;14.454;2024-03-07T14:45:36;16.48;;;7.97;;
37164;SDS011;23057;48.554;14.454;2024-03-07T14:48:11;16.38;;;7.57;;
37164;SDS011;23057;48.554;14.454;2024-03-07T14:50:47;14.18;;;7.80;;
37164;SDS011;23057;48.554;14.454;2024-03-07T14:53:18;15.82;;;8.32;;
37164;SDS011;23057;48.554;14.454;2024-03-07T14:55:51;15.70;;;7.95;;
37164;SDS011;23057;48.554;14.454;2024-03-07T14:58:23;17.42;;;8.10;;
37164;SDS011;23057;48.554;14.454;2024-03-07T15:00:56;14.27;;;7.78;;
37164;SDS011;23057;48.554;14.454;2024-03-07T15:03:27;11.38;;;6.15;;
37164;SDS011;23057;48.554;14.454;2024-03-07T15:05:59;14.93;;;6.93;;
37164;SDS011;23057;48.554;14.454;2024-03-07T15:08:31;10.63;;;6.13;;
37164;SDS011;23057;48.554;14.454;2024-03-07T15:11:06;17.00;;;7.57;;
37164;SDS011;23057;48.554;14.454;2024-03-07T15:13:56;10.93;;;6.20;;